sensor_id;sensor_type;location;lat;lon;timestamp;P1;durP1;ratioP1;P2;durP2;ratioP2
4654;SDS011;2340;47.814;9.798;2023-06-24T00:02:15;5.80;;;5.30;;
4654;SDS011;2340;47.814;9.798;2023-06-24T00:04:41;5.60;;;5.30;;
4654;SDS011;2340;47.814;9.798;2023-06-24T00:07:06;6.20;;;4.73;;
4654;SDS011;2340;47.814;9.798;2023-06-24T00:09:32;4.93;;;4.53;;
4654;SDS011;2340;47.814;9.798;2023-06-24T00:11:58;5.23;;;4.80;;
4654;SDS011;2340;47.814;9.798;2023-06-24T00:14:24;5.47;;;4.97;;
4654;SDS011;2340;47.814;9.798;2023-06-24T00:16:51;4.93;;;4.43;;
4654;SDS011;2340;47.814;9.798;2023-06-24T00:19:20;5.70;;;4.80;;
4654;SDS011;2340;47.814;9.798;2023-06-24T00:21:50;5.37;;;4.97;;
4654;SDS011;2340;47.814;9.798;2023-06-24T00:24:17;5.23;;;4.70;;
4654;SDS011;2340;47.814;9.798;2023-06-24T00:26:45;5.43;;;4.97;;
4654;SDS011;2340;47.814;9.798;2023-06-24T00:29:11;4.67;;;4.37;;
4654;SDS011;2340;47.814;9.798;2023-06-24T00:31:37;5.43;;;4.93;;
4654;SDS011;2340;47.814;9.798;2023-06-24T00:34:02;10.83;;;4.73;;
4654;SDS011;2340;47.814;9.798;2023-06-24T00:36:28;5.77;;;5.27;;
4654;SDS011;2340;47.814;9.798;2023-06-24T00:38:55;5.70;;;5.27;;
4654;SDS011;2340;47.814;9.798;2023-06-24T00:41:21;5.90;;;5.30;;
4654;SDS011;2340;47.814;9.798;2023-06-24T00:43:47;18.17;;;4.50;;
4654;SDS011;2340;47.814;9.798;2023-06-24T00:46:13;7.13;;;5.90;;
4654;SDS011;2340;47.814;9.798;2023-06-24T00:48:40;6.10;;;5.37;;
4654;SDS011;2340;47.814;9.798;2023-06-24T00:51:06;5.87;;;5.27;;
4654;SDS011;2340;47.814;9.798;2023-06-24T00:53:31;6.00;;;5.50;;
4654;SDS011;2340;47.814;9.798;2023-06-24T00:55:57;7.60;;;4.60;;
4654;SDS011;2340;47.814;9.798;2023-06-24T00:58:31;5.50;;;4.90;;
4654;SDS011;2340;47.814;9.798;2023-06-24T01:00:57;5.23;;;4.83;;
4654;SDS011;2340;47.814;9.798;2023-06-24T01:03:24;5.20;;;4.70;;
4654;SDS011;2340;47.814;9.798;2023-06-24T01:05:50;4.63;;;4.23;;
4654;SDS011;2340;47.814;9.798;2023-06-24T01:08:17;4.47;;;4.17;;
4654;SDS011;2340;47.814;9.798;2023-06-24T01:10:44;4.90;;;4.60;;
4654;SDS011;2340;47.814;9.798;2023-06-24T01:13:10;7.73;;;5.23;;
4654;SDS011;2340;47.814;9.798;2023-06-24T01:15:36;5.80;;;5.30;;
4654;SDS011;2340;47.814;9.798;2023-06-24T01:20:34;4.83;;;4.43;;
4654;SDS011;2340;47.814;9.798;2023-06-24T01:31:37;4.90;;;4.60;;
4654;SDS011;2340;47.814;9.798;2023-06-24T01:36:54;5.70;;;4.83;;
4654;SDS011;2340;47.814;9.798;2023-06-24T01:39:49;5.63;;;5.23;;
4654;SDS011;2340;47.814;9.798;2023-06-24T01:42:21;7.60;;;4.87;;
4654;SDS011;2340;47.814;9.798;2023-06-24T01:44:48;4.70;;;4.30;;
4654;SDS011;2340;47.814;9.798;2023-06-24T01:47:14;5.50;;;4.90;;
4654;SDS011;2340;47.814;9.798;2023-06-24T01:49:44;5.07;;;4.53;;
4654;SDS011;2340;47.814;9.798;2023-06-24T01:52:11;4.97;;;4.53;;
4654;SDS011;2340;47.814;9.798;2023-06-24T01:54:38;5.40;;;4.97;;
4654;SDS011;2340;47.814;9.798;2023-06-24T01:57:07;5.63;;;4.90;;
4654;SDS011;2340;47.814;9.798;2023-06-24T01:59:35;8.13;;;6.00;;
4654;SDS011;2340;47.814;9.798;2023-06-24T02:02:05;5.87;;;5.30;;
4654;SDS011;2340;47.814;9.798;2023-06-24T02:04:33;5.47;;;5.00;;
4654;SDS011;2340;47.814;9.798;2023-06-24T02:07:01;5.50;;;5.03;;
4654;SDS011;2340;47.814;9.798;2023-06-24T02:09:28;4.83;;;4.53;;
4654;SDS011;2340;47.814;9.798;2023-06-24T02:11:59;5.00;;;4.50;;
4654;SDS011;2340;47.814;9.798;2023-06-24T02:14:28;4.70;;;4.40;;
4654;SDS011;2340;47.814;9.798;2023-06-24T02:16:55;7.20;;;5.10;;
4654;SDS011;2340;47.814;9.798;2023-06-24T02:19:25;7.73;;;5.20;;
4654;SDS011;2340;47.814;9.798;2023-06-24T02:21:54;5.67;;;4.83;;
4654;SDS011;2340;47.814;9.798;2023-06-24T02:24:21;5.27;;;4.77;;
4654;SDS011;2340;47.814;9.798;2023-06-24T02:26:47;5.43;;;4.50;;
4654;SDS011;2340;47.814;9.798;2023-06-24T02:29:14;6.97;;;5.10;;
4654;SDS011;2340;47.814;9.798;2023-06-24T02:31:40;7.80;;;4.47;;
4654;SDS011;2340;47.814;9.798;2023-06-24T02:34:06;4.50;;;4.30;;
4654;SDS011;2340;47.814;9.798;2023-06-24T02:36:32;6.90;;;5.00;;
4654;SDS011;2340;47.814;9.798;2023-06-24T02:38:57;5.30;;;4.33;;
4654;SDS011;2340;47.814;9.798;2023-06-24T02:41:23;5.83;;;4.93;;
4654;SDS011;2340;47.814;9.798;2023-06-24T02:43:48;5.40;;;4.90;;
4654;SDS011;2340;47.814;9.798;2023-06-24T02:46:14;4.37;;;3.97;;
4654;SDS011;2340;47.814;9.798;2023-06-24T02:48:41;4.83;;;4.43;;
4654;SDS011;2340;47.814;9.798;2023-06-24T02:51:10;5.10;;;4.80;;
4654;SDS011;2340;47.814;9.798;2023-06-24T02:53:36;6.30;;;4.80;;
4654;SDS011;2340;47.814;9.798;2023-06-24T02:56:03;4.50;;;4.20;;
4654;SDS011;2340;47.814;9.798;2023-06-24T02:58:31;7.20;;;4.60;;
4654;SDS011;2340;47.814;9.798;2023-06-24T03:00:58;6.27;;;5.70;;
4654;SDS011;2340;47.814;9.798;2023-06-24T03:03:25;4.77;;;4.40;;
4654;SDS011;2340;47.814;9.798;2023-06-24T03:05:53;4.30;;;4.00;;
4654;SDS011;2340;47.814;9.798;2023-06-24T03:08:21;4.77;;;4.37;;
4654;SDS011;2340;47.814;9.798;2023-06-24T03:10:49;6.07;;;4.80;;
4654;SDS011;2340;47.814;9.798;2023-06-24T03:13:15;5.67;;;4.00;;
4654;SDS011;2340;47.814;9.798;2023-06-24T03:15:41;10.93;;;4.80;;
4654;SDS011;2340;47.814;9.798;2023-06-24T03:18:06;13.53;;;4.30;;
4654;SDS011;2340;47.814;9.798;2023-06-24T03:20:35;4.97;;;4.50;;
4654;SDS011;2340;47.814;9.798;2023-06-24T03:23:03;5.73;;;5.33;;
4654;SDS011;2340;47.814;9.798;2023-06-24T03:25:29;4.83;;;4.50;;
4654;SDS011;2340;47.814;9.798;2023-06-24T03:27:55;5.33;;;4.90;;
4654;SDS011;2340;47.814;9.798;2023-06-24T03:30:21;5.47;;;4.90;;
4654;SDS011;2340;47.814;9.798;2023-06-24T03:32:46;5.73;;;3.83;;
4654;SDS011;2340;47.814;9.798;2023-06-24T03:35:12;4.10;;;3.90;;
4654;SDS011;2340;47.814;9.798;2023-06-24T03:37:38;3.80;;;3.53;;
4654;SDS011;2340;47.814;9.798;2023-06-24T03:40:04;7.07;;;4.57;;
4654;SDS011;2340;47.814;9.798;2023-06-24T03:42:30;4.40;;;4.10;;
4654;SDS011;2340;47.814;9.798;2023-06-24T03:44:56;4.50;;;4.10;;
4654;SDS011;2340;47.814;9.798;2023-06-24T03:47:22;9.00;;;4.10;;
4654;SDS011;2340;47.814;9.798;2023-06-24T03:49:47;4.70;;;4.30;;
4654;SDS011;2340;47.814;9.798;2023-06-24T03:52:13;4.67;;;4.37;;
4654;SDS011;2340;47.814;9.798;2023-06-24T03:54:38;4.50;;;4.20;;
4654;SDS011;2340;47.814;9.798;2023-06-24T03:57:05;3.83;;;3.60;;
4654;SDS011;2340;47.814;9.798;2023-06-24T03:59:32;4.37;;;4.07;;
4654;SDS011;2340;47.814;9.798;2023-06-24T04:01:57;4.20;;;3.90;;
4654;SDS011;2340;47.814;9.798;2023-06-24T04:04:23;5.50;;;5.10;;
4654;SDS011;2340;47.814;9.798;2023-06-24T04:06:49;4.47;;;4.10;;
4654;SDS011;2340;47.814;9.798;2023-06-24T04:09:14;6.30;;;4.43;;
4654;SDS011;2340;47.814;9.798;2023-06-24T04:11:40;4.33;;;4.03;;
4654;SDS011;2340;47.814;9.798;2023-06-24T04:14:05;7.97;;;5.23;;
4654;SDS011;2340;47.814;9.798;2023-06-24T04:16:32;8.40;;;4.20;;
4654;SDS011;2340;47.814;9.798;2023-06-24T04:18:58;4.90;;;4.50;;
4654;SDS011;2340;47.814;9.798;2023-06-24T04:21:23;4.77;;;4.53;;
4654;SDS011;2340;47.814;9.798;2023-06-24T04:23:50;4.07;;;3.77;;
4654;SDS011;2340;47.814;9.798;2023-06-24T04:26:16;4.43;;;4.13;;
4654;SDS011;2340;47.814;9.798;2023-06-24T04:28:41;5.47;;;4.57;;
4654;SDS011;2340;47.814;9.798;2023-06-24T04:31:07;4.23;;;3.93;;
4654;SDS011;2340;47.814;9.798;2023-06-24T04:33:32;4.87;;;3.93;;
4654;SDS011;2340;47.814;9.798;2023-06-24T04:35:58;4.83;;;4.07;;
4654;SDS011;2340;47.814;9.798;2023-06-24T04:38:24;3.70;;;3.50;;
4654;SDS011;2340;47.814;9.798;2023-06-24T04:40:50;4.47;;;4.17;;
4654;SDS011;2340;47.814;9.798;2023-06-24T04:43:15;5.67;;;4.37;;
4654;SDS011;2340;47.814;9.798;2023-06-24T04:45:41;4.30;;;4.00;;
4654;SDS011;2340;47.814;9.798;2023-06-24T04:48:07;11.00;;;3.93;;
4654;SDS011;2340;47.814;9.798;2023-06-24T04:50:32;4.17;;;3.87;;
4654;SDS011;2340;47.814;9.798;2023-06-24T04:52:58;4.67;;;4.23;;
4654;SDS011;2340;47.814;9.798;2023-06-24T04:55:23;4.60;;;4.27;;
4654;SDS011;2340;47.814;9.798;2023-06-24T04:57:49;5.90;;;4.50;;
4654;SDS011;2340;47.814;9.798;2023-06-24T05:00:15;4.50;;;3.97;;
4654;SDS011;2340;47.814;9.798;2023-06-24T05:02:40;5.13;;;4.40;;
4654;SDS011;2340;47.814;9.798;2023-06-24T05:05:06;6.87;;;5.67;;
4654;SDS011;2340;47.814;9.798;2023-06-24T05:07:32;3.90;;;3.70;;
4654;SDS011;2340;47.814;9.798;2023-06-24T05:09:58;4.23;;;3.67;;
4654;SDS011;2340;47.814;9.798;2023-06-24T05:12:24;4.77;;;4.37;;
4654;SDS011;2340;47.814;9.798;2023-06-24T05:14:50;4.83;;;4.33;;
4654;SDS011;2340;47.814;9.798;2023-06-24T05:17:17;4.30;;;3.90;;
4654;SDS011;2340;47.814;9.798;2023-06-24T05:19:43;4.33;;;4.13;;
4654;SDS011;2340;47.814;9.798;2023-06-24T05:22:09;5.63;;;3.97;;
4654;SDS011;2340;47.814;9.798;2023-06-24T05:24:34;4.10;;;3.70;;
4654;SDS011;2340;47.814;9.798;2023-06-24T05:27:03;4.60;;;4.20;;
4654;SDS011;2340;47.814;9.798;2023-06-24T05:29:33;6.63;;;3.97;;
4654;SDS011;2340;47.814;9.798;2023-06-24T05:31:59;4.27;;;3.97;;
4654;SDS011;2340;47.814;9.798;2023-06-24T05:34:26;4.60;;;4.17;;
4654;SDS011;2340;47.814;9.798;2023-06-24T05:36:52;4.27;;;3.97;;
4654;SDS011;2340;47.814;9.798;2023-06-24T05:39:18;7.90;;;4.53;;
4654;SDS011;2340;47.814;9.798;2023-06-24T05:41:45;9.17;;;4.57;;
4654;SDS011;2340;47.814;9.798;2023-06-24T05:44:10;9.80;;;3.53;;
4654;SDS011;2340;47.814;9.798;2023-06-24T05:46:36;4.40;;;4.10;;
4654;SDS011;2340;47.814;9.798;2023-06-24T05:49:02;7.37;;;5.50;;
4654;SDS011;2340;47.814;9.798;2023-06-24T05:51:27;5.23;;;4.10;;
4654;SDS011;2340;47.814;9.798;2023-06-24T05:53:53;4.40;;;4.20;;
4654;SDS011;2340;47.814;9.798;2023-06-24T05:56:19;5.03;;;4.70;;
4654;SDS011;2340;47.814;9.798;2023-06-24T05:58:45;4.77;;;4.47;;
4654;SDS011;2340;47.814;9.798;2023-06-24T06:01:11;5.30;;;4.80;;
4654;SDS011;2340;47.814;9.798;2023-06-24T06:03:37;5.00;;;4.60;;
4654;SDS011;2340;47.814;9.798;2023-06-24T06:06:02;4.67;;;4.27;;
4654;SDS011;2340;47.814;9.798;2023-06-24T06:08:28;5.40;;;5.00;;
4654;SDS011;2340;47.814;9.798;2023-06-24T06:10:53;3.90;;;3.70;;
4654;SDS011;2340;47.814;9.798;2023-06-24T06:13:19;5.37;;;3.63;;
4654;SDS011;2340;47.814;9.798;2023-06-24T06:15:45;4.07;;;3.77;;
4654;SDS011;2340;47.814;9.798;2023-06-24T06:18:11;4.07;;;3.87;;
4654;SDS011;2340;47.814;9.798;2023-06-24T06:20:37;3.90;;;3.60;;
4654;SDS011;2340;47.814;9.798;2023-06-24T06:23:02;3.97;;;3.67;;
4654;SDS011;2340;47.814;9.798;2023-06-24T06:25:28;6.00;;;3.43;;
4654;SDS011;2340;47.814;9.798;2023-06-24T06:27:54;4.90;;;3.60;;
4654;SDS011;2340;47.814;9.798;2023-06-24T06:30:19;4.27;;;3.50;;
4654;SDS011;2340;47.814;9.798;2023-06-24T06:32:45;3.37;;;3.20;;
4654;SDS011;2340;47.814;9.798;2023-06-24T06:35:10;4.77;;;4.47;;
4654;SDS011;2340;47.814;9.798;2023-06-24T06:37:36;4.83;;;4.40;;
4654;SDS011;2340;47.814;9.798;2023-06-24T06:40:02;3.90;;;3.50;;
4654;SDS011;2340;47.814;9.798;2023-06-24T06:42:28;4.00;;;3.70;;
4654;SDS011;2340;47.814;9.798;2023-06-24T06:44:54;3.60;;;3.50;;
4654;SDS011;2340;47.814;9.798;2023-06-24T06:47:20;4.80;;;4.40;;
4654;SDS011;2340;47.814;9.798;2023-06-24T06:49:46;5.17;;;4.77;;
4654;SDS011;2340;47.814;9.798;2023-06-24T06:52:11;3.43;;;3.23;;
4654;SDS011;2340;47.814;9.798;2023-06-24T06:54:37;4.07;;;3.87;;
4654;SDS011;2340;47.814;9.798;2023-06-24T06:57:03;5.03;;;4.03;;
4654;SDS011;2340;47.814;9.798;2023-06-24T06:59:29;7.20;;;3.93;;
4654;SDS011;2340;47.814;9.798;2023-06-24T07:01:55;5.47;;;5.00;;
4654;SDS011;2340;47.814;9.798;2023-06-24T07:04:21;4.63;;;4.23;;
4654;SDS011;2340;47.814;9.798;2023-06-24T07:06:47;5.33;;;4.07;;
4654;SDS011;2340;47.814;9.798;2023-06-24T07:09:12;4.30;;;4.00;;
4654;SDS011;2340;47.814;9.798;2023-06-24T07:11:38;5.20;;;4.17;;
4654;SDS011;2340;47.814;9.798;2023-06-24T07:14:04;4.20;;;3.90;;
4654;SDS011;2340;47.814;9.798;2023-06-24T07:16:29;5.27;;;4.77;;
4654;SDS011;2340;47.814;9.798;2023-06-24T07:18:55;4.87;;;4.60;;
4654;SDS011;2340;47.814;9.798;2023-06-24T07:21:20;4.60;;;4.30;;
4654;SDS011;2340;47.814;9.798;2023-06-24T07:23:47;5.63;;;5.13;;
4654;SDS011;2340;47.814;9.798;2023-06-24T07:26:12;7.13;;;5.67;;
4654;SDS011;2340;47.814;9.798;2023-06-24T07:28:38;5.30;;;4.87;;
4654;SDS011;2340;47.814;9.798;2023-06-24T07:31:04;10.30;;;4.33;;
4654;SDS011;2340;47.814;9.798;2023-06-24T07:33:29;7.90;;;5.27;;
4654;SDS011;2340;47.814;9.798;2023-06-24T07:35:56;5.87;;;5.40;;
4654;SDS011;2340;47.814;9.798;2023-06-24T07:38:22;5.10;;;4.70;;
4654;SDS011;2340;47.814;9.798;2023-06-24T07:40:47;11.20;;;5.07;;
4654;SDS011;2340;47.814;9.798;2023-06-24T07:43:13;4.40;;;4.20;;
4654;SDS011;2340;47.814;9.798;2023-06-24T07:45:39;8.27;;;5.97;;
4654;SDS011;2340;47.814;9.798;2023-06-24T07:48:05;7.97;;;5.70;;
4654;SDS011;2340;47.814;9.798;2023-06-24T07:50:31;9.20;;;5.80;;
4654;SDS011;2340;47.814;9.798;2023-06-24T07:52:57;6.20;;;5.60;;
4654;SDS011;2340;47.814;9.798;2023-06-24T07:55:23;5.40;;;4.90;;
4654;SDS011;2340;47.814;9.798;2023-06-24T07:57:49;6.00;;;4.07;;
4654;SDS011;2340;47.814;9.798;2023-06-24T08:00:14;5.10;;;4.80;;
4654;SDS011;2340;47.814;9.798;2023-06-24T08:02:41;11.43;;;4.20;;
4654;SDS011;2340;47.814;9.798;2023-06-24T08:05:07;6.17;;;5.57;;
4654;SDS011;2340;47.814;9.798;2023-06-24T08:07:34;10.63;;;5.00;;
4654;SDS011;2340;47.814;9.798;2023-06-24T08:10:00;8.13;;;6.00;;
4654;SDS011;2340;47.814;9.798;2023-06-24T08:12:26;4.43;;;3.90;;
4654;SDS011;2340;47.814;9.798;2023-06-24T08:14:51;6.10;;;3.73;;
4654;SDS011;2340;47.814;9.798;2023-06-24T08:17:17;8.97;;;5.70;;
4654;SDS011;2340;47.814;9.798;2023-06-24T08:19:42;5.27;;;4.93;;
4654;SDS011;2340;47.814;9.798;2023-06-24T08:22:08;8.20;;;5.10;;
4654;SDS011;2340;47.814;9.798;2023-06-24T08:24:34;5.60;;;3.97;;
4654;SDS011;2340;47.814;9.798;2023-06-24T08:26:59;5.00;;;3.80;;
4654;SDS011;2340;47.814;9.798;2023-06-24T08:29:25;5.00;;;4.30;;
4654;SDS011;2340;47.814;9.798;2023-06-24T08:31:50;5.30;;;4.80;;
4654;SDS011;2340;47.814;9.798;2023-06-24T08:34:16;17.97;;;4.50;;
4654;SDS011;2340;47.814;9.798;2023-06-24T08:36:42;4.60;;;4.17;;
4654;SDS011;2340;47.814;9.798;2023-06-24T08:39:07;5.13;;;3.83;;
4654;SDS011;2340;47.814;9.798;2023-06-24T08:41:33;9.00;;;4.77;;
4654;SDS011;2340;47.814;9.798;2023-06-24T08:43:59;4.23;;;4.00;;
4654;SDS011;2340;47.814;9.798;2023-06-24T08:46:25;8.73;;;4.87;;
4654;SDS011;2340;47.814;9.798;2023-06-24T08:48:59;7.00;;;3.80;;
4654;SDS011;2340;47.814;9.798;2023-06-24T08:51:34;6.23;;;4.23;;
4654;SDS011;2340;47.814;9.798;2023-06-24T08:54:05;5.07;;;4.40;;
4654;SDS011;2340;47.814;9.798;2023-06-24T08:56:34;5.63;;;4.20;;
4654;SDS011;2340;47.814;9.798;2023-06-24T08:59:03;6.47;;;3.73;;
4654;SDS011;2340;47.814;9.798;2023-06-24T09:01:33;4.40;;;4.10;;
4654;SDS011;2340;47.814;9.798;2023-06-24T09:03:59;4.50;;;4.10;;
4654;SDS011;2340;47.814;9.798;2023-06-24T09:06:25;4.83;;;4.53;;
4654;SDS011;2340;47.814;9.798;2023-06-24T09:08:54;4.30;;;4.00;;
4654;SDS011;2340;47.814;9.798;2023-06-24T09:11:26;4.20;;;3.87;;
4654;SDS011;2340;47.814;9.798;2023-06-24T09:13:59;4.50;;;3.97;;
4654;SDS011;2340;47.814;9.798;2023-06-24T09:16:25;6.33;;;4.20;;
4654;SDS011;2340;47.814;9.798;2023-06-24T09:18:52;3.80;;;3.60;;
4654;SDS011;2340;47.814;9.798;2023-06-24T09:21:22;4.40;;;3.70;;
4654;SDS011;2340;47.814;9.798;2023-06-24T09:23:57;4.83;;;4.20;;
4654;SDS011;2340;47.814;9.798;2023-06-24T09:26:23;7.40;;;3.67;;
4654;SDS011;2340;47.814;9.798;2023-06-24T09:28:50;7.23;;;3.63;;
4654;SDS011;2340;47.814;9.798;2023-06-24T09:31:16;3.43;;;3.13;;
4654;SDS011;2340;47.814;9.798;2023-06-24T09:33:43;3.70;;;3.50;;
4654;SDS011;2340;47.814;9.798;2023-06-24T09:36:12;4.17;;;3.47;;
4654;SDS011;2340;47.814;9.798;2023-06-24T09:38:40;3.27;;;3.17;;
4654;SDS011;2340;47.814;9.798;2023-06-24T09:41:07;2.93;;;2.83;;
4654;SDS011;2340;47.814;9.798;2023-06-24T09:43:36;3.77;;;3.47;;
4654;SDS011;2340;47.814;9.798;2023-06-24T09:46:04;4.80;;;3.97;;
4654;SDS011;2340;47.814;9.798;2023-06-24T09:48:32;3.60;;;3.30;;
4654;SDS011;2340;47.814;9.798;2023-06-24T09:51:02;5.03;;;3.87;;
4654;SDS011;2340;47.814;9.798;2023-06-24T09:53:33;3.70;;;3.50;;
4654;SDS011;2340;47.814;9.798;2023-06-24T09:56:00;3.60;;;3.40;;
4654;SDS011;2340;47.814;9.798;2023-06-24T09:58:32;4.70;;;4.10;;
4654;SDS011;2340;47.814;9.798;2023-06-24T10:01:02;3.60;;;3.40;;
4654;SDS011;2340;47.814;9.798;2023-06-24T10:03:29;3.93;;;3.70;;
4654;SDS011;2340;47.814;9.798;2023-06-24T10:05:59;6.13;;;3.43;;
4654;SDS011;2340;47.814;9.798;2023-06-24T10:08:25;3.50;;;3.30;;
4654;SDS011;2340;47.814;9.798;2023-06-24T10:10:52;4.37;;;3.73;;
4654;SDS011;2340;47.814;9.798;2023-06-24T10:13:18;3.17;;;2.87;;
4654;SDS011;2340;47.814;9.798;2023-06-24T10:15:44;3.70;;;3.50;;
4654;SDS011;2340;47.814;9.798;2023-06-24T10:20:57;3.77;;;3.57;;
4654;SDS011;2340;47.814;9.798;2023-06-24T10:23:29;3.40;;;3.20;;
4654;SDS011;2340;47.814;9.798;2023-06-24T10:26:09;4.70;;;3.00;;
4654;SDS011;2340;47.814;9.798;2023-06-24T10:29:07;3.97;;;3.60;;
4654;SDS011;2340;47.814;9.798;2023-06-24T10:44:55;3.53;;;3.33;;
4654;SDS011;2340;47.814;9.798;2023-06-24T10:47:40;3.07;;;2.97;;
4654;SDS011;2340;47.814;9.798;2023-06-24T10:50:15;4.90;;;2.93;;
4654;SDS011;2340;47.814;9.798;2023-06-24T10:52:47;3.57;;;3.27;;
4654;SDS011;2340;47.814;9.798;2023-06-24T10:55:14;3.53;;;3.33;;
4654;SDS011;2340;47.814;9.798;2023-06-24T10:57:42;4.90;;;3.20;;
4654;SDS011;2340;47.814;9.798;2023-06-24T11:00:08;3.97;;;3.57;;
4654;SDS011;2340;47.814;9.798;2023-06-24T11:02:34;3.70;;;3.40;;
4654;SDS011;2340;47.814;9.798;2023-06-24T11:05:02;2.77;;;2.67;;
4654;SDS011;2340;47.814;9.798;2023-06-24T11:07:29;3.90;;;3.60;;
4654;SDS011;2340;47.814;9.798;2023-06-24T11:12:36;3.00;;;2.90;;
4654;SDS011;2340;47.814;9.798;2023-06-24T11:17:28;7.33;;;3.53;;
4654;SDS011;2340;47.814;9.798;2023-06-24T11:19:54;3.83;;;3.63;;
4654;SDS011;2340;47.814;9.798;2023-06-24T11:22:21;4.00;;;3.60;;
4654;SDS011;2340;47.814;9.798;2023-06-24T11:24:48;3.20;;;2.90;;
4654;SDS011;2340;47.814;9.798;2023-06-24T11:27:13;3.50;;;3.30;;
4654;SDS011;2340;47.814;9.798;2023-06-24T11:29:39;3.47;;;3.27;;
4654;SDS011;2340;47.814;9.798;2023-06-24T11:32:08;4.30;;;3.10;;
4654;SDS011;2340;47.814;9.798;2023-06-24T11:34:34;3.50;;;3.30;;
4654;SDS011;2340;47.814;9.798;2023-06-24T11:37:11;3.13;;;2.90;;
4654;SDS011;2340;47.814;9.798;2023-06-24T11:39:37;3.57;;;3.20;;
4654;SDS011;2340;47.814;9.798;2023-06-24T11:42:05;3.10;;;2.93;;
4654;SDS011;2340;47.814;9.798;2023-06-24T11:44:32;8.50;;;2.80;;
4654;SDS011;2340;47.814;9.798;2023-06-24T11:47:08;4.10;;;3.13;;
4654;SDS011;2340;47.814;9.798;2023-06-24T11:49:50;3.03;;;2.90;;
4654;SDS011;2340;47.814;9.798;2023-06-24T11:52:17;3.83;;;3.00;;
4654;SDS011;2340;47.814;9.798;2023-06-24T11:54:43;3.40;;;3.20;;
4654;SDS011;2340;47.814;9.798;2023-06-24T11:57:09;3.28;;;3.08;;
4654;SDS011;2340;47.814;9.798;2023-06-24T11:59:34;3.17;;;2.97;;
4654;SDS011;2340;47.814;9.798;2023-06-24T12:02:00;2.72;;;2.63;;
4654;SDS011;2340;47.814;9.798;2023-06-24T12:04:31;3.13;;;2.92;;
4654;SDS011;2340;47.814;9.798;2023-06-24T12:06:58;2.65;;;2.50;;
4654;SDS011;2340;47.814;9.798;2023-06-24T12:09:24;2.85;;;2.75;;
4654;SDS011;2340;47.814;9.798;2023-06-24T12:11:50;2.97;;;2.70;;
4654;SDS011;2340;47.814;9.798;2023-06-24T12:14:16;3.17;;;2.47;;
4654;SDS011;2340;47.814;9.798;2023-06-24T12:16:42;2.70;;;2.60;;
4654;SDS011;2340;47.814;9.798;2023-06-24T12:19:08;3.17;;;3.08;;
4654;SDS011;2340;47.814;9.798;2023-06-24T12:21:34;2.63;;;2.53;;
4654;SDS011;2340;47.814;9.798;2023-06-24T12:24:01;3.28;;;3.08;;
4654;SDS011;2340;47.814;9.798;2023-06-24T12:26:27;3.08;;;2.97;;
4654;SDS011;2340;47.814;9.798;2023-06-24T12:28:55;3.80;;;2.97;;
4654;SDS011;2340;47.814;9.798;2023-06-24T12:31:21;2.90;;;2.80;;
4654;SDS011;2340;47.814;9.798;2023-06-24T12:33:47;2.55;;;2.38;;
4654;SDS011;2340;47.814;9.798;2023-06-24T12:36:13;2.95;;;2.85;;
4654;SDS011;2340;47.814;9.798;2023-06-24T12:38:39;3.20;;;3.00;;
4654;SDS011;2340;47.814;9.798;2023-06-24T12:41:05;4.85;;;2.80;;
4654;SDS011;2340;47.814;9.798;2023-06-24T12:43:32;3.45;;;3.25;;
4654;SDS011;2340;47.814;9.798;2023-06-24T12:45:58;3.22;;;3.03;;
4654;SDS011;2340;47.814;9.798;2023-06-24T12:48:23;3.72;;;3.33;;
4654;SDS011;2340;47.814;9.798;2023-06-24T12:50:49;3.58;;;3.28;;
4654;SDS011;2340;47.814;9.798;2023-06-24T12:53:18;4.80;;;3.20;;
4654;SDS011;2340;47.814;9.798;2023-06-24T12:55:45;3.00;;;2.80;;
4654;SDS011;2340;47.814;9.798;2023-06-24T12:58:10;2.47;;;2.38;;
4654;SDS011;2340;47.814;9.798;2023-06-24T13:00:38;4.90;;;3.00;;
4654;SDS011;2340;47.814;9.798;2023-06-24T13:03:03;3.25;;;2.95;;
4654;SDS011;2340;47.814;9.798;2023-06-24T13:05:29;3.50;;;2.83;;
4654;SDS011;2340;47.814;9.798;2023-06-24T13:07:55;5.85;;;3.20;;
4654;SDS011;2340;47.814;9.798;2023-06-24T13:10:20;5.18;;;2.75;;
4654;SDS011;2340;47.814;9.798;2023-06-24T13:12:46;3.03;;;2.83;;
4654;SDS011;2340;47.814;9.798;2023-06-24T13:15:12;4.30;;;3.03;;
4654;SDS011;2340;47.814;9.798;2023-06-24T13:17:38;2.72;;;2.63;;
4654;SDS011;2340;47.814;9.798;2023-06-24T13:20:04;3.30;;;2.90;;
4654;SDS011;2340;47.814;9.798;2023-06-24T13:22:30;4.00;;;3.60;;
4654;SDS011;2340;47.814;9.798;2023-06-24T13:24:56;4.57;;;3.22;;
4654;SDS011;2340;47.814;9.798;2023-06-24T13:27:22;3.95;;;3.20;;
4654;SDS011;2340;47.814;9.798;2023-06-24T13:29:47;2.80;;;2.70;;
4654;SDS011;2340;47.814;9.798;2023-06-24T13:32:13;3.25;;;3.00;;
4654;SDS011;2340;47.814;9.798;2023-06-24T13:34:39;4.90;;;2.70;;
4654;SDS011;2340;47.814;9.798;2023-06-24T13:37:04;3.72;;;3.42;;
4654;SDS011;2340;47.814;9.798;2023-06-24T13:39:30;3.58;;;3.38;;
4654;SDS011;2340;47.814;9.798;2023-06-24T13:41:57;3.65;;;3.47;;
4654;SDS011;2340;47.814;9.798;2023-06-24T13:44:22;3.45;;;3.22;;
4654;SDS011;2340;47.814;9.798;2023-06-24T13:46:48;3.45;;;3.25;;
4654;SDS011;2340;47.814;9.798;2023-06-24T13:49:15;3.30;;;3.00;;
4654;SDS011;2340;47.814;9.798;2023-06-24T13:51:41;3.88;;;3.58;;
4654;SDS011;2340;47.814;9.798;2023-06-24T13:54:07;3.53;;;3.22;;
4654;SDS011;2340;47.814;9.798;2023-06-24T13:56:33;10.98;;;3.08;;
4654;SDS011;2340;47.814;9.798;2023-06-24T13:58:58;3.13;;;2.92;;
4654;SDS011;2340;47.814;9.798;2023-06-24T14:01:24;4.75;;;3.13;;
4654;SDS011;2340;47.814;9.798;2023-06-24T14:03:53;5.50;;;3.67;;
4654;SDS011;2340;47.814;9.798;2023-06-24T14:06:19;6.97;;;3.55;;
4654;SDS011;2340;47.814;9.798;2023-06-24T14:08:46;3.10;;;2.97;;
4654;SDS011;2340;47.814;9.798;2023-06-24T14:11:11;4.22;;;3.92;;
4654;SDS011;2340;47.814;9.798;2023-06-24T14:13:37;3.60;;;2.88;;
4654;SDS011;2340;47.814;9.798;2023-06-24T14:16:03;3.47;;;2.88;;
4654;SDS011;2340;47.814;9.798;2023-06-24T14:18:29;3.40;;;3.22;;
4654;SDS011;2340;47.814;9.798;2023-06-24T14:21:01;2.95;;;2.72;;
4654;SDS011;2340;47.814;9.798;2023-06-24T14:23:30;3.80;;;3.60;;
4654;SDS011;2340;47.814;9.798;2023-06-24T14:25:56;3.20;;;3.00;;
4654;SDS011;2340;47.814;9.798;2023-06-24T14:28:24;3.05;;;2.78;;
4654;SDS011;2340;47.814;9.798;2023-06-24T14:30:49;3.08;;;2.97;;
4654;SDS011;2340;47.814;9.798;2023-06-24T14:33:15;3.22;;;3.03;;
4654;SDS011;2340;47.814;9.798;2023-06-24T14:35:41;2.58;;;2.42;;
4654;SDS011;2340;47.814;9.798;2023-06-24T14:38:07;3.75;;;2.90;;
4654;SDS011;2340;47.814;9.798;2023-06-24T14:40:33;3.35;;;3.15;;
4654;SDS011;2340;47.814;9.798;2023-06-24T14:42:59;3.65;;;2.80;;
4654;SDS011;2340;47.814;9.798;2023-06-24T14:45:25;3.42;;;3.13;;
4654;SDS011;2340;47.814;9.798;2023-06-24T14:47:51;4.32;;;3.13;;
4654;SDS011;2340;47.814;9.798;2023-06-24T14:50:17;3.40;;;3.10;;
4654;SDS011;2340;47.814;9.798;2023-06-24T14:52:42;3.20;;;3.00;;
4654;SDS011;2340;47.814;9.798;2023-06-24T14:55:08;5.00;;;3.30;;
4654;SDS011;2340;47.814;9.798;2023-06-24T14:57:34;3.40;;;3.10;;
4654;SDS011;2340;47.814;9.798;2023-06-24T15:00:01;4.13;;;3.58;;
4654;SDS011;2340;47.814;9.798;2023-06-24T15:02:27;2.70;;;2.60;;
4654;SDS011;2340;47.814;9.798;2023-06-24T15:04:53;4.18;;;3.28;;
4654;SDS011;2340;47.814;9.798;2023-06-24T15:07:18;3.92;;;3.50;;
4654;SDS011;2340;47.814;9.798;2023-06-24T15:09:44;3.40;;;3.20;;
4654;SDS011;2340;47.814;9.798;2023-06-24T15:12:10;5.18;;;3.03;;
4654;SDS011;2340;47.814;9.798;2023-06-24T15:14:35;3.47;;;3.17;;
4654;SDS011;2340;47.814;9.798;2023-06-24T15:17:01;4.00;;;2.90;;
4654;SDS011;2340;47.814;9.798;2023-06-24T15:19:27;3.22;;;3.00;;
4654;SDS011;2340;47.814;9.798;2023-06-24T15:21:53;3.47;;;3.28;;
4654;SDS011;2340;47.814;9.798;2023-06-24T15:24:18;3.15;;;3.05;;
4654;SDS011;2340;47.814;9.798;2023-06-24T15:26:44;3.40;;;3.10;;
4654;SDS011;2340;47.814;9.798;2023-06-24T15:29:10;3.13;;;3.03;;
4654;SDS011;2340;47.814;9.798;2023-06-24T15:31:35;2.92;;;2.83;;
4654;SDS011;2340;47.814;9.798;2023-06-24T15:34:01;3.72;;;3.45;;
4654;SDS011;2340;47.814;9.798;2023-06-24T15:36:26;3.33;;;3.22;;
4654;SDS011;2340;47.814;9.798;2023-06-24T15:38:53;6.72;;;3.30;;
4654;SDS011;2340;47.814;9.798;2023-06-24T15:41:20;3.33;;;3.13;;
4654;SDS011;2340;47.814;9.798;2023-06-24T15:43:45;3.70;;;3.50;;
4654;SDS011;2340;47.814;9.798;2023-06-24T15:46:11;3.72;;;2.85;;
4654;SDS011;2340;47.814;9.798;2023-06-24T15:48:37;3.35;;;3.15;;